Laguna Beach, California
Current Conditions -  °F | °C
As of 5:53 PM on Saturday 22 Nov 2014 (Local Time) from KSNA Reporting Station
Broken Clouds Broken Clouds  
Wind Chill: 66°   Ceiling: 23000
Heat Index: 66°   Visibility: 10mi
Dew Point: 56°   Wind: 3mph
Humidity: 70%   Direction: 200°SSW
Pressure: 30.02"   Gusts: NA
Location:  33.55°N, 117.78°W
Report Text: KSNA 230153Z 20003KT 10SM BKN230 19/13 A3002 RMK AO2 SLP166 T01890133
Loading
Personal Weather Stations






























Interactive Weather Map New forecast layout! Learn more

10-Day Weather Forecast

Advertisements
Track Severe Weather on mobile